Time;durP1;ratioP1;P1;durP2;ratioP2;P2;SDS_P1;SDS_P2;PMS_P1;PMS_P2;Temp;Humidity;BMP_temperature;BMP_pressure;BME280_temperature;BME280_humidity;BME280_pressure;Samples;Min_cycle;Max_cycle;Signal;HPM_P1;HPM_P2
2022/06/28 00:01:40;;;;;;;9.45;9.15;;;18.70;99.90;;;;;;5064888;28;20293;-81
2022/06/28 00:04:07;;;;;;;9.48;9.18;;;18.70;99.90;;;;;;5065340;28;20329;-81
2022/06/28 00:06:35;;;;;;;9.23;8.93;;;18.70;99.90;;;;;;5066781;28;20334;-80
2022/06/28 00:09:03;;;;;;;9.23;8.93;;;18.70;99.90;;;;;;5066199;28;20242;-81
2022/06/28 00:11:31;;;;;;;9.30;9.00;;;18.60;99.90;;;;;;5067052;28;20246;-81
2022/06/28 00:13:58;;;;;;;9.30;9.00;;;18.60;99.90;;;;;;5065124;28;20226;-81
2022/06/28 00:16:26;;;;;;;9.27;8.98;;;18.60;99.90;;;;;;5064032;28;20289;-81
2022/06/28 00:18:53;;;;;;;9.07;8.88;;;18.50;99.90;;;;;;5065021;28;20230;-81
2022/06/28 00:21:21;;;;;;;9.05;8.82;;;18.50;99.90;;;;;;5068927;28;20245;-80
2022/06/28 00:23:48;;;;;;;9.23;8.93;;;18.50;99.90;;;;;;5067788;28;20230;-81
2022/06/28 00:26:16;;;;;;;9.40;9.10;;;18.50;99.90;;;;;;5064300;28;20285;-81
2022/06/28 00:28:44;;;;;;;9.52;9.23;;;18.40;99.90;;;;;;5064217;28;20257;-81
2022/06/28 00:31:11;;;;;;;9.77;9.48;;;18.40;99.90;;;;;;5063028;28;20311;-81
2022/06/28 00:33:40;;;;;;;9.50;9.20;;;18.40;99.90;;;;;;5063447;28;20235;-81
2022/06/28 00:36:08;;;;;;;9.50;9.20;;;18.40;99.90;;;;;;5062540;28;20258;-81
2022/06/28 00:38:36;;;;;;;9.50;9.20;;;18.30;99.90;;;;;;5063047;28;20327;-81
2022/06/28 00:41:03;;;;;;;9.38;9.07;;;18.30;99.90;;;;;;5063829;28;20236;-81
2022/06/28 00:43:31;;;;;;;9.20;8.90;;;18.30;99.90;;;;;;5065507;28;20267;-81
2022/06/28 00:45:58;;;;;;;9.50;9.20;;;18.20;99.90;;;;;;5063617;28;20266;-81
2022/06/28 00:48:26;;;;;;;9.25;8.95;;;18.20;99.90;;;;;;5064588;28;20322;-81
2022/06/28 00:50:56;;;;;;;9.30;9.00;;;18.10;99.90;;;;;;5063398;28;20227;-81
2022/06/28 00:53:24;;;;;;;9.32;9.02;;;18.20;99.90;;;;;;5062126;28;20278;-81
2022/06/28 00:55:51;;;;;;;9.60;9.30;;;18.20;99.90;;;;;;5062746;28;20247;-80
2022/06/28 00:58:19;;;;;;;9.85;9.55;;;18.20;99.90;;;;;;5063363;28;20283;-81
2022/06/28 01:00:48;;;;;;;9.73;9.43;;;18.10;99.90;;;;;;5063030;28;20240;-81
2022/06/28 01:03:19;;;;;;;9.70;9.40;;;18.10;99.90;;;;;;5062594;28;20239;-81
2022/06/28 01:05:47;;;;;;;9.77;9.48;;;18.00;99.90;;;;;;5061953;28;20317;-81
2022/06/28 01:08:16;;;;;;;9.50;9.20;;;17.90;99.90;;;;;;5062340;28;20249;-81
2022/06/28 01:10:44;;;;;;;9.70;9.40;;;17.90;99.90;;;;;;5062175;28;20274;-81
2022/06/28 01:13:12;;;;;;;9.80;9.50;;;17.90;99.90;;;;;;5061742;28;20298;-81
2022/06/28 01:15:42;;;;;;;9.63;9.32;;;18.00;99.90;;;;;;5061864;28;20235;-81
2022/06/28 01:18:12;;;;;;;9.38;9.07;;;18.10;99.90;;;;;;5062045;28;20230;-81
2022/06/28 01:20:42;;;;;;;9.60;9.30;;;18.10;99.90;;;;;;5061883;28;20278;-81
2022/06/28 01:23:12;;;;;;;9.15;8.85;;;18.10;99.90;;;;;;5062454;28;20241;-81
2022/06/28 01:25:40;;;;;;;9.43;9.13;;;18.10;99.90;;;;;;5060997;28;20258;-81
2022/06/28 01:28:08;;;;;;;9.60;9.30;;;18.10;99.90;;;;;;5061632;28;20329;-81
2022/06/28 01:30:36;;;;;;;9.70;9.40;;;18.20;99.90;;;;;;5061333;28;20218;-81
2022/06/28 01:33:04;;;;;;;9.45;9.15;;;18.20;99.90;;;;;;5061150;28;20322;-81
2022/06/28 01:35:32;;;;;;;9.60;9.30;;;18.20;99.90;;;;;;5061518;28;20297;-81
2022/06/28 01:38:00;;;;;;;9.68;9.38;;;18.30;99.90;;;;;;5061286;28;20733;-80
2022/06/28 01:40:30;;;;;;;9.60;9.30;;;18.30;99.90;;;;;;5061517;28;20261;-81
2022/06/28 01:42:57;;;;;;;9.65;9.35;;;18.30;99.90;;;;;;5061090;28;20235;-81
2022/06/28 01:45:25;;;;;;;9.30;9.00;;;18.30;99.90;;;;;;5061032;28;20235;-81
2022/06/28 01:47:53;;;;;;;9.60;9.30;;;18.30;99.90;;;;;;5060891;28;20262;-81
2022/06/28 01:50:21;;;;;;;9.35;9.05;;;18.30;99.90;;;;;;5061141;28;20318;-81
2022/06/28 01:52:49;;;;;;;9.15;8.85;;;18.20;99.90;;;;;;5062000;28;20237;-81
2022/06/28 01:55:16;;;;;;;9.23;8.93;;;18.20;99.90;;;;;;5060688;28;20334;-81
2022/06/28 01:57:45;;;;;;;9.27;8.98;;;18.20;99.90;;;;;;5060900;28;20317;-81
2022/06/28 02:00:14;;;;;;;9.30;9.00;;;18.20;99.90;;;;;;5061168;28;20261;-81
2022/06/28 02:02:42;;;;;;;8.98;8.77;;;18.20;99.90;;;;;;5060278;28;20265;-81
2022/06/28 02:05:10;;;;;;;9.10;8.82;;;18.10;99.90;;;;;;5059846;28;20341;-81
2022/06/28 02:07:37;;;;;;;9.23;8.93;;;18.10;99.90;;;;;;5060977;28;20288;-81
2022/06/28 02:10:06;;;;;;;8.80;8.60;;;18.10;99.90;;;;;;5060214;28;20310;-81
2022/06/28 02:12:33;;;;;;;8.95;8.75;;;18.10;99.90;;;;;;5059723;28;20231;-81
2022/06/28 02:15:02;;;;;;;8.90;8.70;;;18.00;99.90;;;;;;5059780;28;20234;-81
2022/06/28 02:17:30;;;;;;;8.77;8.57;;;18.00;99.90;;;;;;5059011;28;20239;-81
2022/06/28 02:19:57;;;;;;;8.98;8.77;;;17.90;99.90;;;;;;5059836;28;20310;-81
2022/06/28 02:22:27;;;;;;;9.00;8.80;;;17.80;99.90;;;;;;5059534;28;20242;-80
2022/06/28 02:24:55;;;;;;;9.10;8.85;;;17.70;99.90;;;;;;5059080;28;20235;-80
2022/06/28 02:27:22;;;;;;;9.15;8.85;;;17.70;99.90;;;;;;5059285;28;20294;-79
2022/06/28 02:29:50;;;;;;;9.05;8.82;;;17.70;99.90;;;;;;5058470;28;20233;-80
2022/06/28 02:32:19;;;;;;;9.38;9.07;;;17.70;99.90;;;;;;5059269;28;20349;-80
2022/06/28 02:40:23;;;;;;;9.30;9.00;;;17.60;99.90;;;;;;5060293;28;20207;-79
2022/06/28 02:42:52;;;;;;;9.30;9.00;;;17.60;99.90;;;;;;5059726;28;20300;-79
2022/06/28 02:45:20;;;;;;;9.38;9.07;;;17.60;99.90;;;;;;5059609;28;20265;-80
2022/06/28 02:47:50;;;;;;;10.00;9.70;;;17.60;99.90;;;;;;5059786;28;20262;-80
2022/06/28 02:50:18;;;;;;;10.10;9.80;;;17.60;99.90;;;;;;5059543;28;20322;-80
2022/06/28 02:52:46;;;;;;;10.00;9.70;;;17.50;99.90;;;;;;5058694;28;20239;-79
2022/06/28 02:55:14;;;;;;;10.00;9.70;;;17.50;99.90;;;;;;5059003;28;20313;-80
2022/06/28 02:57:42;;;;;;;10.13;9.82;;;17.50;99.90;;;;;;5058897;28;20237;-80
2022/06/28 03:00:14;;;;;;;10.38;10.07;;;17.50;99.90;;;;;;5058203;28;20266;-80
2022/06/28 03:02:44;;;;;;;10.30;10.00;;;17.40;99.90;;;;;;5058148;28;20245;-80
2022/06/28 03:05:15;;;;;;;10.32;10.02;;;17.40;99.90;;;;;;5057499;28;20761;-80
2022/06/28 03:07:43;;;;;;;10.50;10.20;;;17.40;99.90;;;;;;5058184;28;20258;-80
2022/06/28 03:10:12;;;;;;;10.70;10.40;;;17.30;99.90;;;;;;5057399;28;20241;-80
2022/06/28 03:12:40;;;;;;;10.65;10.35;;;17.30;99.90;;;;;;5058580;28;20319;-79
2022/06/28 03:15:11;;;;;;;10.60;10.30;;;17.30;99.90;;;;;;5058893;28;20234;-81
2022/06/28 03:17:38;;;;;;;10.90;10.60;;;17.20;99.90;;;;;;5057808;28;20242;-80
2022/06/28 03:20:07;;;;;;;10.50;10.20;;;17.20;99.90;;;;;;5058129;28;20258;-80
2022/06/28 03:22:36;;;;;;;10.43;10.13;;;17.20;99.90;;;;;;5058894;28;20234;-81
2022/06/28 03:25:04;;;;;;;10.40;10.10;;;17.20;99.90;;;;;;5059246;28;20322;-80
2022/06/28 03:27:32;;;;;;;10.40;10.10;;;17.20;99.90;;;;;;5058751;28;20237;-80
2022/06/28 03:29:59;;;;;;;10.40;10.10;;;17.30;99.90;;;;;;5060259;28;20237;-80
2022/06/28 03:32:30;;;;;;;10.10;9.80;;;17.20;99.90;;;;;;5061969;28;20317;-80
2022/06/28 03:34:57;;;;;;;10.30;10.00;;;17.20;99.90;;;;;;5061546;28;20334;-80
2022/06/28 03:37:25;;;;;;;10.00;9.70;;;17.10;99.90;;;;;;5061657;28;20230;-81
2022/06/28 03:39:54;;;;;;;10.18;9.88;;;17.10;99.90;;;;;;5061852;28;20258;-81
2022/06/28 03:42:21;;;;;;;10.10;9.80;;;17.10;99.90;;;;;;5061795;28;20322;-81
2022/06/28 03:44:49;;;;;;;10.10;9.80;;;17.10;99.90;;;;;;5061748;28;20258;-81
2022/06/28 03:47:16;;;;;;;10.10;9.80;;;17.10;99.90;;;;;;5062308;28;20227;-80
2022/06/28 03:49:44;;;;;;;9.80;9.50;;;17.10;99.90;;;;;;5061670;28;20238;-81
2022/06/28 03:52:11;;;;;;;9.88;9.57;;;17.10;99.90;;;;;;5061694;28;20317;-81
2022/06/28 03:54:39;;;;;;;10.20;9.90;;;17.00;99.90;;;;;;5061650;28;20289;-80
2022/06/28 03:57:08;;;;;;;10.20;9.90;;;17.00;99.90;;;;;;5061764;28;20274;-81
2022/06/28 03:59:36;;;;;;;10.05;9.75;;;17.00;99.90;;;;;;5062047;28;20291;-81
2022/06/28 04:02:05;;;;;;;10.30;10.00;;;17.00;99.90;;;;;;5062143;28;20239;-81
2022/06/28 04:04:32;;;;;;;10.35;10.05;;;17.00;99.90;;;;;;5063018;28;20299;-81
2022/06/28 04:07:00;;;;;;;10.40;10.10;;;17.10;99.90;;;;;;5062703;28;20251;-80
2022/06/28 04:09:27;;;;;;;10.10;9.80;;;17.10;99.90;;;;;;5063228;28;20314;-81
2022/06/28 04:11:55;;;;;;;10.30;10.00;;;17.10;99.90;;;;;;5062498;28;20227;-80
2022/06/28 04:14:24;;;;;;;10.10;9.80;;;17.10;99.90;;;;;;5062802;28;20249;-80
2022/06/28 04:16:52;;;;;;;9.98;9.68;;;17.10;99.90;;;;;;5062551;28;20236;-80
2022/06/28 04:19:19;;;;;;;10.13;9.82;;;17.10;99.90;;;;;;5061814;28;20237;-80
2022/06/28 04:21:47;;;;;;;10.10;9.80;;;17.20;99.90;;;;;;5062243;28;20294;-80
2022/06/28 04:24:14;;;;;;;10.10;9.80;;;17.10;99.90;;;;;;5060927;28;20242;-80
2022/06/28 04:26:42;;;;;;;10.20;9.90;;;17.00;99.90;;;;;;5061412;28;20239;-80
2022/06/28 04:29:09;;;;;;;10.30;10.00;;;17.00;99.90;;;;;;5068713;28;20219;-79
2022/06/28 04:31:38;;;;;;;9.95;9.65;;;17.00;99.90;;;;;;5073609;28;20254;-79
2022/06/28 04:34:06;;;;;;;10.07;9.77;;;17.00;99.90;;;;;;5063783;28;20298;-80
2022/06/28 04:36:34;;;;;;;10.20;9.90;;;17.00;99.90;;;;;;5062406;28;20265;-80
2022/06/28 04:39:01;;;;;;;10.00;9.70;;;17.10;99.90;;;;;;5062505;28;20230;-79
2022/06/28 04:41:28;;;;;;;10.00;9.70;;;17.10;99.90;;;;;;5062416;28;20241;-80
2022/06/28 04:43:56;;;;;;;9.63;9.32;;;17.10;99.90;;;;;;5063694;28;20290;-80
2022/06/28 04:46:24;;;;;;;9.82;9.52;;;17.10;99.90;;;;;;5063336;28;20237;-81
2022/06/28 04:48:53;;;;;;;10.30;10.00;;;17.20;99.90;;;;;;5062427;28;20753;-80
2022/06/28 04:51:20;;;;;;;10.05;9.75;;;17.10;99.90;;;;;;5061687;28;20333;-81
2022/06/28 04:53:48;;;;;;;9.90;9.60;;;17.20;99.90;;;;;;5061289;28;20234;-80
2022/06/28 04:56:20;;;;;;;10.07;9.77;;;17.20;99.90;;;;;;5061720;28;20230;-81
2022/06/28 04:58:48;;;;;;;9.90;9.60;;;17.30;99.90;;;;;;5060228;28;20230;-81
2022/06/28 05:01:15;;;;;;;9.77;9.48;;;17.30;99.90;;;;;;5063797;28;20290;-81
2022/06/28 05:03:43;;;;;;;9.85;9.55;;;17.40;99.90;;;;;;5063115;28;20298;-81
2022/06/28 05:06:12;;;;;;;9.98;9.68;;;17.40;99.90;;;;;;5093303;22;20230;-80
2022/06/28 05:08:40;;;;;;;9.88;9.57;;;17.30;99.90;;;;;;5079044;28;20230;-82
2022/06/28 05:11:10;;;;;;;10.00;9.70;;;17.40;99.90;;;;;;5082076;28;20269;-80
2022/06/28 05:13:38;;;;;;;10.00;9.70;;;17.30;99.90;;;;;;5081610;28;20289;-80
2022/06/28 05:16:06;;;;;;;9.88;9.57;;;17.30;99.90;;;;;;5069156;28;20333;-81
2022/06/28 05:18:33;;;;;;;10.00;9.70;;;17.30;99.90;;;;;;5061344;28;20310;-80
2022/06/28 05:21:01;;;;;;;10.15;9.85;;;17.30;99.90;;;;;;5061630;28;20264;-80
2022/06/28 05:23:30;;;;;;;11.10;10.70;;;17.40;99.90;;;;;;5060476;28;20246;-80
2022/06/28 05:25:57;;;;;;;10.35;10.05;;;17.40;99.90;;;;;;5061025;28;20322;-80
2022/06/28 05:28:25;;;;;;;10.80;10.50;;;17.50;99.90;;;;;;5060728;28;20262;-80
2022/06/28 05:30:53;;;;;;;10.60;10.30;;;17.50;99.90;;;;;;5061773;28;20258;-80
2022/06/28 05:33:21;;;;;;;11.15;10.75;;;17.50;99.90;;;;;;5061004;28;20233;-81
2022/06/28 05:35:49;;;;;;;10.88;10.55;;;17.60;99.90;;;;;;5059765;28;20306;-80
2022/06/28 05:38:17;;;;;;;10.80;10.50;;;17.70;99.90;;;;;;5060633;28;20214;-80
2022/06/28 05:40:46;;;;;;;11.13;10.73;;;17.60;99.90;;;;;;5060863;28;20391;-80
2022/06/28 05:43:13;;;;;;;11.15;10.75;;;17.60;99.90;;;;;;5061152;28;20243;-81
2022/06/28 05:45:44;;;;;;;10.88;10.57;;;17.70;99.90;;;;;;5062561;28;20266;-80
2022/06/28 05:48:12;;;;;;;11.10;10.70;;;17.70;99.90;;;;;;5062529;28;20227;-80
2022/06/28 05:50:40;;;;;;;10.90;10.57;;;17.70;99.90;;;;;;5062120;28;20235;-81
2022/06/28 05:53:13;;;;;;;11.02;10.68;;;17.80;99.90;;;;;;5061033;28;20238;-81
2022/06/28 05:55:40;;;;;;;10.90;10.60;;;17.90;99.90;;;;;;5060858;28;20250;-81
2022/06/28 05:58:12;;;;;;;10.80;10.50;;;18.10;99.90;;;;;;5061580;28;20257;-81
2022/06/28 06:00:39;;;;;;;10.80;10.50;;;18.20;99.90;;;;;;5061680;28;20285;-81
2022/06/28 06:03:14;;;;;;;10.88;10.57;;;18.30;99.90;;;;;;5061344;28;20337;-80
2022/06/28 06:05:42;;;;;;;11.02;10.73;;;18.30;99.90;;;;;;5060398;28;20249;-81
2022/06/28 06:08:10;;;;;;;11.00;10.70;;;18.30;99.90;;;;;;5060444;28;20219;-81
2022/06/28 06:10:37;;;;;;;10.95;10.65;;;18.30;99.90;;;;;;5060602;28;20247;-81
2022/06/28 06:13:05;;;;;;;10.85;10.55;;;18.30;99.90;;;;;;5059980;28;20241;-81
2022/06/28 06:15:34;;;;;;;11.10;10.70;;;18.50;99.90;;;;;;5067104;28;20326;-81
2022/06/28 06:18:02;;;;;;;11.50;11.10;;;18.60;99.90;;;;;;5063367;28;20218;-81
2022/06/28 06:20:29;;;;;;;11.23;10.82;;;18.60;99.90;;;;;;5062567;28;20226;-81
2022/06/28 06:22:57;;;;;;;11.15;10.77;;;18.70;99.90;;;;;;5062354;28;20245;-81
2022/06/28 06:25:25;;;;;;;11.30;10.90;;;18.70;99.90;;;;;;5061444;28;20290;-81
2022/06/28 06:27:53;;;;;;;11.45;11.05;;;18.80;99.90;;;;;;5061669;28;20219;-81
2022/06/28 06:30:41;;;;;;;;;;;;;;;;;;;;;
2022/06/28 06:33:10;;;;;;;11.35;10.95;;;18.90;99.90;;;;;;5061175;28;20290;-81
2022/06/28 06:35:41;;;;;;;11.57;11.18;;;19.00;99.90;;;;;;5059905;28;20325;-82
2022/06/28 06:38:08;;;;;;;11.30;10.90;;;19.10;99.90;;;;;;5060948;28;20220;-81
2022/06/28 06:40:36;;;;;;;11.35;10.95;;;19.20;99.90;;;;;;5060815;28;20234;-81
2022/06/28 06:43:04;;;;;;;11.57;11.18;;;19.30;99.90;;;;;;5059751;28;20241;-79
2022/06/28 06:45:32;;;;;;;11.50;11.10;;;19.30;99.90;;;;;;5059466;28;20245;-80
2022/06/28 06:48:00;;;;;;;11.57;11.18;;;19.40;99.90;;;;;;5059790;28;20219;-80
2022/06/28 06:50:29;;;;;;;11.38;10.98;;;19.50;99.90;;;;;;5068767;28;20334;-80
2022/06/28 06:52:57;;;;;;;11.43;11.02;;;19.60;99.90;;;;;;5060756;28;20230;-80
2022/06/28 06:55:26;;;;;;;11.50;11.10;;;19.60;99.90;;;;;;5059820;28;20241;-80
2022/06/28 06:57:54;;;;;;;11.85;11.45;;;19.70;99.90;;;;;;5059390;28;20227;-80
2022/06/28 07:00:22;;;;;;;11.50;11.10;;;19.80;99.90;;;;;;5059616;28;20257;-80
2022/06/28 07:02:49;;;;;;;11.57;11.18;;;19.90;99.90;;;;;;5059260;28;20245;-80
2022/06/28 07:05:17;;;;;;;11.63;11.23;;;20.00;99.90;;;;;;5061714;28;20346;-80
2022/06/28 07:07:45;;;;;;;11.90;11.50;;;20.10;99.90;;;;;;5068886;28;20251;-80
2022/06/28 07:10:13;;;;;;;11.70;11.30;;;20.10;99.90;;;;;;5075512;28;20295;-80
2022/06/28 07:12:41;;;;;;;11.55;11.15;;;20.10;99.90;;;;;;5075779;28;20214;-80
2022/06/28 07:15:10;;;;;;;11.50;11.10;;;20.00;99.90;;;;;;5065389;28;20659;-80
2022/06/28 07:17:37;;;;;;;11.38;10.98;;;20.00;99.90;;;;;;5063543;28;20286;-80
2022/06/28 07:20:07;;;;;;;11.68;11.27;;;20.00;99.90;;;;;;5063541;28;20234;-80
2022/06/28 07:22:34;;;;;;;11.70;11.30;;;20.10;99.90;;;;;;5062407;28;20230;-80
2022/06/28 07:25:03;;;;;;;11.75;11.35;;;20.20;99.90;;;;;;5063374;28;20285;-80
2022/06/28 07:27:31;;;;;;;11.73;11.32;;;20.40;99.90;;;;;;5063126;28;20223;-80
2022/06/28 07:29:59;;;;;;;11.55;11.15;;;20.60;99.90;;;;;;5062893;28;21080;-80
2022/06/28 07:32:27;;;;;;;11.57;11.18;;;20.70;99.90;;;;;;5062468;28;20265;-80
2022/06/28 07:34:54;;;;;;;11.80;11.40;;;20.70;99.90;;;;;;5062196;28;20318;-80
2022/06/28 07:37:22;;;;;;;11.85;11.45;;;20.90;99.90;;;;;;5062128;28;20223;-80
2022/06/28 07:39:49;;;;;;;11.60;11.20;;;21.00;99.90;;;;;;5062897;28;20242;-80
2022/06/28 07:42:18;;;;;;;11.80;11.40;;;21.10;99.90;;;;;;5062901;28;20288;-80
2022/06/28 07:44:45;;;;;;;11.95;11.55;;;21.20;99.90;;;;;;5061647;28;20238;-80
2022/06/28 07:47:13;;;;;;;12.05;11.65;;;21.20;99.90;;;;;;5072374;28;20226;-79
2022/06/28 07:52:34;;;;;;;12.07;11.68;;;21.30;99.90;;;;;;5065009;28;20246;-80
2022/06/28 07:55:03;;;;;;;11.80;11.40;;;21.30;99.90;;;;;;5066545;28;20234;-80
2022/06/28 07:57:32;;;;;;;11.88;11.48;;;21.50;99.90;;;;;;5063782;28;20218;-81
2022/06/28 07:59:59;;;;;;;11.80;11.40;;;21.70;99.90;;;;;;5063266;28;20322;-80
2022/06/28 08:02:28;;;;;;;11.90;11.50;;;21.60;99.90;;;;;;5063242;28;20326;-80
2022/06/28 08:04:56;;;;;;;11.95;11.55;;;21.70;99.90;;;;;;5061065;28;20238;-80
2022/06/28 08:07:23;;;;;;;11.98;11.57;;;22.00;99.90;;;;;;5061730;28;20223;-80
2022/06/28 08:09:51;;;;;;;12.20;11.80;;;22.30;99.90;;;;;;5062036;28;20241;-80
2022/06/28 08:12:19;;;;;;;12.00;11.60;;;22.60;99.90;;;;;;5062340;28;20231;-80
2022/06/28 08:14:48;;;;;;;12.25;11.85;;;22.80;99.90;;;;;;5061071;28;20242;-80
2022/06/28 08:17:15;;;;;;;12.20;11.80;;;22.90;99.90;;;;;;5061666;28;20279;-80
2022/06/28 08:19:43;;;;;;;12.05;11.65;;;23.00;99.90;;;;;;5061867;28;20321;-80
2022/06/28 08:22:10;;;;;;;12.15;11.75;;;23.10;99.90;;;;;;5060854;28;20237;-81
2022/06/28 08:24:38;;;;;;;12.15;11.75;;;23.00;99.90;;;;;;5060880;28;20242;-80
2022/06/28 08:27:13;;;;;;;12.27;11.88;;;23.10;99.90;;;;;;5061496;28;20258;-80
2022/06/28 08:29:42;;;;;;;12.40;12.00;;;23.10;99.90;;;;;;5061288;28;20234;-80
2022/06/28 08:32:12;;;;;;;12.40;12.00;;;23.00;99.90;;;;;;5061406;28;20265;-80
2022/06/28 08:34:40;;;;;;;12.13;11.73;;;23.30;99.90;;;;;;5061544;28;20294;-80
2022/06/28 08:37:08;;;;;;;12.23;11.82;;;23.20;99.90;;;;;;5061829;28;20227;-80
2022/06/28 08:39:35;;;;;;;12.20;11.80;;;23.10;99.90;;;;;;5061761;28;20245;-80
2022/06/28 08:42:05;;;;;;;11.70;11.30;;;23.10;99.90;;;;;;5061040;28;20226;-80
2022/06/28 08:44:36;;;;;;;11.93;11.52;;;23.30;99.90;;;;;;5062502;28;20266;-80
2022/06/28 08:47:05;;;;;;;10.02;9.73;;;23.40;99.90;;;;;;5063796;28;20310;-80
2022/06/28 08:49:45;;;;;;;10.48;10.18;;;23.50;99.90;;;;;;5065960;28;20294;-80
2022/06/28 08:52:15;;;;;;;10.57;10.27;;;23.60;99.90;;;;;;5062571;28;20241;-80
2022/06/28 08:54:44;;;;;;;10.70;10.40;;;23.70;99.90;;;;;;5062739;28;20377;-81
2022/06/28 08:57:12;;;;;;;10.50;10.20;;;23.90;99.90;;;;;;5063326;28;20254;-80
2022/06/28 08:59:39;;;;;;;10.70;10.40;;;23.80;99.90;;;;;;5062422;28;20242;-80
2022/06/28 09:02:07;;;;;;;11.10;10.80;;;23.80;99.90;;;;;;5062467;28;20234;-80
2022/06/28 09:04:37;;;;;;;10.85;10.55;;;23.60;99.90;;;;;;5062450;28;20230;-81
2022/06/28 09:07:05;;;;;;;11.00;10.70;;;23.60;99.90;;;;;;5062846;28;20223;-80
2022/06/28 09:09:32;;;;;;;10.90;10.60;;;23.70;99.90;;;;;;5062238;28;20250;-80
2022/06/28 09:12:00;;;;;;;11.00;10.70;;;23.80;99.90;;;;;;5062005;28;20269;-79
2022/06/28 09:14:30;;;;;;;11.00;10.70;;;23.80;99.90;;;;;;5062001;28;20257;-80
2022/06/28 09:16:59;;;;;;;11.00;10.70;;;23.80;99.90;;;;;;5063209;28;20230;-80
2022/06/28 09:19:38;;;;;;;11.00;10.70;;;23.90;99.90;;;;;;5062723;28;20299;-81
2022/06/28 09:22:06;;;;;;;11.27;10.98;;;24.00;99.90;;;;;;5063051;28;20226;-80
2022/06/28 09:24:35;;;;;;;11.48;11.15;;;24.20;99.90;;;;;;5061472;28;20302;-81
2022/06/28 09:27:06;;;;;;;11.68;11.27;;;24.60;99.90;;;;;;5062222;28;20227;-80
2022/06/28 09:29:47;;;;;;;11.65;11.25;;;25.10;99.90;;;;;;5062280;28;20227;-80
2022/06/28 09:32:15;;;;;;;11.27;10.98;;;25.30;99.90;;;;;;5062787;28;20226;-81
2022/06/28 09:34:55;;;;;;;11.35;11.05;;;25.60;99.90;;;;;;5060543;28;20258;-80
2022/06/28 09:37:42;;;;;;;11.60;11.20;;;25.60;99.90;;;;;;5059004;28;20238;-80
2022/06/28 09:40:16;;;;;;;11.60;11.20;;;25.80;99.90;;;;;;5059971;28;20235;-80
2022/06/28 09:42:46;;;;;;;11.88;11.48;;;25.90;99.90;;;;;;5059758;28;20234;-79
2022/06/28 09:45:17;;;;;;;11.80;11.40;;;26.30;99.90;;;;;;5059064;28;20296;-80
2022/06/28 09:47:49;;;;;;;11.82;11.43;;;26.60;99.90;;;;;;5059030;28;20219;-80
2022/06/28 09:50:23;;;;;;;11.70;11.30;;;26.60;99.90;;;;;;5059488;28;20263;-80
2022/06/28 09:52:52;;;;;;;11.82;11.43;;;26.80;99.90;;;;;;5059300;28;20235;-80
2022/06/28 09:55:21;;;;;;;12.13;11.73;;;27.00;99.90;;;;;;5059154;28;20238;-80
2022/06/28 09:57:50;;;;;;;12.10;11.70;;;27.40;99.90;;;;;;5060260;28;20255;-79
2022/06/28 10:00:21;;;;;;;11.90;11.50;;;27.70;99.90;;;;;;5061762;28;20254;-81
2022/06/28 10:02:49;;;;;;;11.80;11.40;;;27.60;99.90;;;;;;5063031;28;20239;-81
2022/06/28 10:05:17;;;;;;;12.00;11.60;;;27.60;99.90;;;;;;5061531;28;20782;-81
2022/06/28 10:07:47;;;;;;;11.88;11.48;;;27.70;99.90;;;;;;5065018;28;20250;-80
2022/06/28 10:10:15;;;;;;;11.88;11.48;;;27.60;99.90;;;;;;5065474;28;20239;-80
2022/06/28 10:15:33;;;;;;;11.82;11.43;;;27.50;99.90;;;;;;5061951;28;20218;-81
2022/06/28 10:18:05;;;;;;;11.82;11.43;;;27.30;99.90;;;;;;5062417;28;20226;-81
2022/06/28 10:20:34;;;;;;;11.75;11.35;;;27.30;99.90;;;;;;5062097;28;20333;-82
2022/06/28 10:23:26;;;;;;;11.88;11.48;;;27.20;99.90;;;;;;5064931;28;20294;-81
2022/06/28 10:26:12;;;;;;;11.57;11.20;;;27.30;99.90;;;;;;5062915;28;20330;-80
2022/06/28 10:28:43;;;;;;;11.68;11.27;;;27.60;99.90;;;;;;5068290;28;20308;-80
2022/06/28 10:31:42;;;;;;;11.20;10.90;;;27.80;99.90;;;;;;5061452;28;20321;-80
2022/06/28 10:34:13;;;;;;;10.85;10.55;;;28.10;99.90;;;;;;5057282;28;20616;-81
2022/06/28 10:36:51;;;;;;;11.32;11.02;;;28.20;99.90;;;;;;5060998;28;20239;-80
2022/06/28 10:39:25;;;;;;;11.20;10.90;;;28.10;99.90;;;;;;5063977;28;20240;-80
2022/06/28 10:41:56;;;;;;;11.10;10.80;;;27.60;99.90;;;;;;5067459;28;20234;-81
2022/06/28 10:44:28;;;;;;;11.45;11.10;;;27.50;99.90;;;;;;5069729;28;20249;-81
2022/06/28 10:47:13;;;;;;;12.00;11.60;;;27.60;99.90;;;;;;5069734;28;20598;-81
2022/06/28 10:49:57;;;;;;;11.70;11.30;;;27.50;99.90;;;;;;5066488;28;20313;-80
2022/06/28 10:52:32;;;;;;;11.70;11.30;;;27.50;99.90;;;;;;5065717;28;21035;-80
2022/06/28 10:55:23;;;;;;;11.55;11.15;;;27.70;99.90;;;;;;5066165;28;20238;-80
2022/06/28 10:58:08;;;;;;;11.80;11.40;;;28.00;99.90;;;;;;5066791;28;20226;-81
2022/06/28 11:00:35;;;;;;;11.80;11.40;;;28.00;99.90;;;;;;5069385;28;20234;-80
2022/06/28 11:03:05;;;;;;;11.90;11.50;;;27.50;99.90;;;;;;5075093;28;20241;-80
2022/06/28 11:05:50;;;;;;;11.73;11.32;;;27.60;99.90;;;;;;5093287;22;20292;-80
2022/06/28 11:08:58;;;;;;;11.80;11.40;;;27.60;99.90;;;;;;5086919;28;20233;-80
2022/06/28 11:11:30;;;;;;;11.88;11.48;;;27.70;99.90;;;;;;5067418;28;20236;-81
2022/06/28 11:14:32;;;;;;;11.95;11.55;;;28.00;99.90;;;;;;5085084;28;20237;-80
2022/06/28 11:17:00;;;;;;;11.90;11.50;;;28.30;99.90;;;;;;5062918;28;20237;-80
2022/06/28 11:19:27;;;;;;;11.90;11.50;;;28.50;99.90;;;;;;5064352;28;20242;-81
2022/06/28 11:21:56;;;;;;;11.93;11.52;;;28.80;99.90;;;;;;5064341;28;20225;-80
2022/06/28 11:24:24;;;;;;;11.90;11.50;;;28.90;99.90;;;;;;5063006;28;20243;-81
2022/06/28 11:29:38;;;;;;;11.68;11.27;;;29.20;99.90;;;;;;5064960;28;20222;-80
2022/06/28 11:32:18;;;;;;;11.80;11.40;;;29.50;99.90;;;;;;5063496;28;20318;-81
2022/06/28 11:34:54;;;;;;;11.73;11.32;;;29.10;99.90;;;;;;5063823;28;20298;-81
2022/06/28 11:37:21;;;;;;;11.80;11.40;;;28.80;99.90;;;;;;5062924;28;20295;-80
2022/06/28 11:39:53;;;;;;;12.00;11.60;;;28.90;99.90;;;;;;5063192;28;20239;-80
2022/06/28 11:42:22;;;;;;;11.90;11.50;;;28.90;99.90;;;;;;5062981;28;20228;-80
2022/06/28 11:44:51;;;;;;;11.95;11.55;;;28.70;99.90;;;;;;5062639;28;20285;-80
2022/06/28 11:47:20;;;;;;;11.80;11.40;;;28.50;99.90;;;;;;5063105;28;20239;-80
2022/06/28 11:50:12;;;;;;;11.85;11.45;;;28.70;99.90;;;;;;5061617;28;20215;-80
2022/06/28 11:52:51;;;;;;;11.98;11.57;;;28.40;99.90;;;;;;5063182;28;20286;-80
2022/06/28 11:55:26;;;;;;;11.95;11.55;;;28.60;99.90;;;;;;5063040;28;20240;-81
2022/06/28 11:58:14;;;;;;;11.98;11.57;;;29.10;99.90;;;;;;5065217;28;20238;-80
2022/06/28 12:01:00;;;;;;;12.05;11.65;;;29.60;99.90;;;;;;5064451;28;20229;-81
2022/06/28 12:03:28;;;;;;;12.10;11.70;;;29.60;99.90;;;;;;5064441;28;20741;-81
2022/06/28 12:05:58;;;;;;;11.93;11.52;;;29.60;99.90;;;;;;5063327;28;20244;-80
2022/06/28 12:08:44;;;;;;;11.80;11.40;;;29.40;99.90;;;;;;5063723;28;20231;-81
2022/06/28 12:11:31;;;;;;;11.73;11.32;;;29.40;99.90;;;;;;5063565;28;20223;-80
2022/06/28 12:14:06;;;;;;;11.35;11.05;;;29.40;99.90;;;;;;5063217;28;20229;-80
2022/06/28 12:16:36;;;;;;;11.70;11.30;;;29.60;99.90;;;;;;5064283;28;20264;-80
2022/06/28 12:19:06;;;;;;;11.30;11.00;;;29.80;99.90;;;;;;5062346;28;20384;-81
2022/06/28 12:21:33;;;;;;;11.40;11.10;;;29.70;99.90;;;;;;5063351;28;20282;-80
2022/06/28 12:24:02;;;;;;;11.77;11.38;;;29.90;99.90;;;;;;5062532;28;20234;-80
2022/06/28 12:26:43;;;;;;;11.48;11.18;;;30.10;99.90;;;;;;5062435;28;20250;-81
2022/06/28 12:29:14;;;;;;;11.85;11.45;;;30.50;99.90;;;;;;5062878;28;20231;-80
2022/06/28 12:31:44;;;;;;;11.60;11.20;;;30.50;99.90;;;;;;5062834;28;20310;-80
2022/06/28 12:34:16;;;;;;;11.40;11.10;;;30.10;99.90;;;;;;5063136;28;20314;-81
2022/06/28 12:36:43;;;;;;;11.40;11.10;;;29.50;99.90;;;;;;5061836;28;20246;-80
2022/06/28 12:39:11;;;;;;;11.35;11.05;;;29.40;99.90;;;;;;5061870;28;20235;-81
2022/06/28 12:41:38;;;;;;;11.45;11.15;;;29.10;99.90;;;;;;5061502;28;20245;-80
2022/06/28 12:44:06;;;;;;;11.80;11.40;;;28.80;99.90;;;;;;5062589;28;20326;-83
2022/06/28 12:46:34;;;;;;;11.77;11.38;;;28.60;99.90;;;;;;5062095;28;20239;-80
2022/06/28 12:49:02;;;;;;;11.68;11.27;;;28.80;99.90;;;;;;5063235;28;20234;-80
2022/06/28 12:51:30;;;;;;;11.60;11.20;;;28.60;99.90;;;;;;5062753;28;20235;-80
2022/06/28 12:53:57;;;;;;;11.38;11.07;;;28.70;99.90;;;;;;5062110;28;20282;-80
2022/06/28 12:56:25;;;;;;;11.50;11.10;;;28.90;99.90;;;;;;5062783;28;20250;-80
2022/06/28 12:58:52;;;;;;;11.43;11.10;;;29.20;99.90;;;;;;5064328;28;20226;-80
2022/06/28 13:01:21;;;;;;;11.30;11.00;;;29.40;99.90;;;;;;5062748;28;20231;-80